Stoney Brook, Minnesota
Current Conditions -  °F | °C
As of 4:16 PM on Wednesday 28 Jan 2015 (Local Time) from KCOQ Reporting Station
Haze Haze  
Wind Chill: 28°   Ceiling: 1500
Heat Index: 28°   Visibility: 5mi
Dew Point: 23°   Wind: 3mph
Humidity: 80%   Direction: 170°S
Pressure: 29.8"   Gusts: NA
Location:  46.8211°N, 92.6871°W
Report Text: KCOQ 282216Z AUTO 17003KT 5SM HZ OVC015 M02/M05 A2980 RMK AO2
Loading
Personal Weather Stations






























Interactive Weather Map New forecast layout! Learn more

10-Day Weather Forecast

Advertisements
Track Severe Weather on mobile